Au Train, Michigan
Current Conditions -  °F | °C
As of 2:10 PM on Sunday 21 Dec 2014 (Local Time) from KSAW Reporting Station
Haze Haze  
Wind Chill: 22°   Ceiling: 900
Heat Index: 32°   Visibility: 5mi
Dew Point: 28°   Wind: 15mph
Humidity: 87%   Direction: 190°S
Pressure: 29.98"   Gusts: NA
Location:  46.43°N, 86.84°W
Report Text: KSAW 211910Z 19013KT 5SM BR OVC009 M00/M02 A2998
Loading
Personal Weather Stations






























Interactive Weather Map New forecast layout! Learn more

10-Day Weather Forecast

Advertisements
Track Severe Weather on mobile